createdAt,value
2016-10-20T00:00:14.962Z,7.79
2016-10-20T00:01:14.970Z,7.81
2016-10-20T00:02:14.989Z,7.79
2016-10-20T00:03:15.000Z,7.85
2016-10-20T00:04:15.005Z,7.87
2016-10-20T00:05:14.972Z,7.69
2016-10-20T00:06:15.014Z,7.69
2016-10-20T00:07:14.993Z,7.78
2016-10-20T00:08:15.033Z,7.84
2016-10-20T00:09:15.007Z,7.82
2016-10-20T00:10:15.027Z,7.89
2016-10-20T00:11:15.046Z,7.74
2016-10-20T00:12:15.001Z,7.85
2016-10-20T00:13:15.037Z,7.75
2016-10-20T00:14:15.039Z,7.77
2016-10-20T00:15:14.988Z,7.84
2016-10-20T00:16:15.023Z,7.85
2016-10-20T00:17:15.000Z,7.77
2016-10-20T00:18:14.986Z,7.84
2016-10-20T00:19:14.990Z,7.96
2016-10-20T00:20:15.024Z,7.85
2016-10-20T00:21:15.050Z,7.84
2016-10-20T00:22:15.039Z,7.71
2016-10-20T00:23:15.013Z,7.75
2016-10-20T00:24:14.987Z,7.82
2016-10-20T00:25:15.019Z,7.74
2016-10-20T00:26:15.019Z,7.77
2016-10-20T00:27:15.000Z,7.69
2016-10-20T00:28:15.302Z,7.78
2016-10-20T00:29:15.308Z,7.63
2016-10-20T00:30:15.063Z,7.72
2016-10-20T00:31:15.025Z,7.77
2016-10-20T00:32:14.991Z,7.74
2016-10-20T00:33:14.991Z,7.78
2016-10-20T00:34:15.007Z,7.82
2016-10-20T00:35:15.057Z,7.66
2016-10-20T00:36:15.048Z,7.62
2016-10-20T00:37:15.013Z,7.66
2016-10-20T00:38:15.006Z,7.74
2016-10-20T00:39:15.013Z,7.66
2016-10-20T00:40:14.988Z,7.66
2016-10-20T00:41:15.039Z,7.74
2016-10-20T00:42:15.001Z,7.69
2016-10-20T00:43:15.026Z,7.69
2016-10-20T00:44:15.045Z,7.69
2016-10-20T00:45:15.001Z,7.69
2016-10-20T00:46:15.026Z,7.72
2016-10-20T00:47:15.014Z,7.78
2016-10-20T00:48:14.982Z,7.72
2016-10-20T00:49:15.004Z,7.71
2016-10-20T00:50:15.019Z,7.79
2016-10-20T00:51:15.010Z,7.77
2016-10-20T00:52:15.026Z,7.67
2016-10-20T00:53:14.968Z,7.58
2016-10-20T00:54:15.017Z,7.74
2016-10-20T00:55:14.978Z,7.66
2016-10-20T00:56:15.055Z,7.77
2016-10-20T00:57:15.004Z,7.62
2016-10-20T00:58:15.068Z,7.66
2016-10-20T00:59:15.015Z,7.71
2016-10-20T01:00:15.007Z,7.63
2016-10-20T01:01:15.013Z,7.58
2016-10-20T01:02:15.026Z,7.59
2016-10-20T01:03:15.018Z,7.71
2016-10-20T01:04:15.020Z,7.6
2016-10-20T01:05:15.023Z,7.79
2016-10-20T01:06:15.037Z,7.56
2016-10-20T01:07:15.084Z,7.62
2016-10-20T01:08:15.068Z,7.69
2016-10-20T01:09:15.004Z,7.77
2016-10-20T01:10:14.990Z,7.58
2016-10-20T01:11:15.045Z,7.59
2016-10-20T01:12:15.090Z,7.49
2016-10-20T01:13:16.023Z,7.69
2016-10-20T01:14:14.995Z,7.62
2016-10-20T01:15:15.027Z,7.53
2016-10-20T01:16:15.050Z,7.6
2016-10-20T01:17:15.865Z,7.56
2016-10-20T01:18:15.335Z,7.56
2016-10-20T01:19:15.019Z,7.62
2016-10-20T01:20:15.063Z,7.62
2016-10-20T01:21:15.036Z,7.52
2016-10-20T01:22:15.424Z,7.56
2016-10-20T01:23:15.017Z,7.56
2016-10-20T01:24:15.356Z,7.52
2016-10-20T01:25:15.012Z,7.59
2016-10-20T01:26:15.041Z,7.63
2016-10-20T01:27:15.022Z,7.58
2016-10-20T01:28:14.999Z,7.52
2016-10-20T01:29:15.030Z,7.66
2016-10-20T01:30:15.012Z,7.53
2016-10-20T01:31:15.047Z,7.53
2016-10-20T01:32:15.021Z,7.52
2016-10-20T01:33:15.094Z,7.56
2016-10-20T01:34:15.015Z,7.53
2016-10-20T01:35:15.058Z,7.55
2016-10-20T01:36:15.078Z,7.63
2016-10-20T01:37:15.059Z,7.52
2016-10-20T01:38:15.094Z,7.53
2016-10-20T01:39:15.041Z,7.67
2016-10-20T01:40:15.034Z,7.53
2016-10-20T01:41:15.043Z,7.56
2016-10-20T01:42:15.069Z,7.53
2016-10-20T01:43:15.031Z,7.6
2016-10-20T01:44:15.070Z,7.58
2016-10-20T01:45:15.891Z,7.45
2016-10-20T01:46:15.063Z,7.44
2016-10-20T01:47:15.069Z,7.53
2016-10-20T01:48:15.346Z,7.62
2016-10-20T01:49:15.161Z,7.63
2016-10-20T01:50:15.047Z,7.41
2016-10-20T01:51:15.272Z,7.56
2016-10-20T01:52:15.175Z,7.55
2016-10-20T01:53:15.113Z,7.45
2016-10-20T01:54:15.120Z,7.52
2016-10-20T01:55:15.066Z,7.32
2016-10-20T01:56:15.078Z,7.47
2016-10-20T01:57:15.065Z,7.4
2016-10-20T01:58:15.072Z,7.32
2016-10-20T01:59:15.118Z,7.4
2016-10-20T02:00:15.105Z,7.31
2016-10-20T02:01:15.170Z,7.31
2016-10-20T02:02:15.168Z,7.2
2016-10-20T02:03:15.093Z,7.19
2016-10-20T02:04:15.056Z,7.23
2016-10-20T02:05:15.046Z,7.15
2016-10-20T02:06:15.048Z,7.2
2016-10-20T02:07:15.074Z,7.17
2016-10-20T02:08:15.076Z,7.02
2016-10-20T02:09:15.029Z,6.91
2016-10-20T02:10:15.077Z,6.95
2016-10-20T02:11:15.069Z,6.97
2016-10-20T02:12:15.033Z,6.97
2016-10-20T02:13:15.082Z,6.89
2016-10-20T02:14:15.048Z,6.86
2016-10-20T02:15:15.039Z,6.83
2016-10-20T02:16:15.046Z,6.71
2016-10-20T02:17:15.053Z,6.83
2016-10-20T02:18:15.047Z,6.79
2016-10-20T02:19:15.053Z,6.68
2016-10-20T02:20:15.100Z,6.72
2016-10-20T02:21:15.094Z,6.59
2016-10-20T02:22:15.082Z,6.73
2016-10-20T02:23:15.128Z,6.56
2016-10-20T02:24:15.176Z,6.72
2016-10-20T02:25:15.190Z,6.65
2016-10-20T02:26:15.197Z,6.77
2016-10-20T02:27:15.137Z,6.73
2016-10-20T02:28:15.111Z,6.76
2016-10-20T02:29:15.126Z,6.86
2016-10-20T02:30:15.094Z,6.76
2016-10-20T02:31:15.085Z,6.84
2016-10-20T02:32:15.077Z,6.76
2016-10-20T02:33:15.075Z,6.76
2016-10-20T02:34:15.088Z,6.89
2016-10-20T02:35:15.095Z,6.94
2016-10-20T02:36:15.201Z,6.98
2016-10-20T02:37:15.096Z,6.99
2016-10-20T02:38:15.073Z,7.16
2016-10-20T02:39:15.096Z,7.01
2016-10-20T02:40:15.101Z,7.13
2016-10-20T02:41:15.112Z,7.13
2016-10-20T02:42:15.106Z,7.17
2016-10-20T02:43:15.076Z,7.12
2016-10-20T02:44:15.089Z,7.26
2016-10-20T02:45:15.081Z,7.17
2016-10-20T02:46:15.142Z,7.27
2016-10-20T02:47:15.097Z,7.27
2016-10-20T02:48:15.096Z,7.23
2016-10-20T02:49:15.075Z,7.32
2016-10-20T02:50:15.100Z,7.29
2016-10-20T02:51:15.107Z,7.38
2016-10-20T02:52:15.097Z,7.44
2016-10-20T02:53:15.111Z,7.47
2016-10-20T02:54:15.100Z,7.31
2016-10-20T02:55:15.077Z,7.53
2016-10-20T02:56:15.094Z,7.5
2016-10-20T02:57:15.124Z,7.45
2016-10-20T02:58:15.083Z,7.47
2016-10-20T02:59:15.100Z,7.49
2016-10-20T03:00:15.097Z,7.49
2016-10-20T03:01:15.116Z,7.55
2016-10-20T03:02:15.154Z,7.53
2016-10-20T03:03:15.125Z,7.49
2016-10-20T03:04:15.133Z,7.47
2016-10-20T03:05:15.095Z,7.56
2016-10-20T03:06:15.087Z,7.55
2016-10-20T03:07:15.107Z,7.58
2016-10-20T03:08:15.148Z,7.41
2016-10-20T03:09:15.097Z,7.63
2016-10-20T03:10:15.100Z,7.59
2016-10-20T03:11:15.150Z,7.62
2016-10-20T03:12:15.127Z,7.52
2016-10-20T03:13:15.128Z,7.49
2016-10-20T03:14:15.111Z,7.58
2016-10-20T03:15:15.102Z,7.56
2016-10-20T03:16:15.394Z,7.53
2016-10-20T03:17:15.151Z,7.49
2016-10-20T03:18:15.210Z,7.6
2016-10-20T03:19:15.177Z,7.6
2016-10-20T03:20:15.138Z,7.53
2016-10-20T03:21:15.212Z,7.53
2016-10-20T03:22:15.181Z,7.45
2016-10-20T03:23:15.116Z,7.69
2016-10-20T03:24:15.124Z,7.59
2016-10-20T03:25:15.180Z,7.58
2016-10-20T03:26:15.130Z,7.52
2016-10-20T03:27:15.100Z,7.58
2016-10-20T03:28:15.172Z,7.66
2016-10-20T03:29:15.139Z,7.66
2016-10-20T03:30:15.114Z,7.5
2016-10-20T03:31:15.134Z,7.53
2016-10-20T03:32:15.117Z,7.63
2016-10-20T03:33:15.132Z,7.5
2016-10-20T03:34:15.140Z,7.53
2016-10-20T03:35:15.163Z,7.5
2016-10-20T03:36:15.421Z,7.52
2016-10-20T03:37:15.133Z,7.55
2016-10-20T03:38:15.111Z,7.59
2016-10-20T03:39:15.129Z,7.45
2016-10-20T03:40:15.153Z,7.42
2016-10-20T03:41:15.115Z,7.47
2016-10-20T03:42:15.256Z,7.56
2016-10-20T03:43:15.435Z,7.55
2016-10-20T03:44:15.402Z,7.52
2016-10-20T03:45:15.160Z,7.47
2016-10-20T03:46:15.146Z,7.52
2016-10-20T03:47:15.169Z,7.22
2016-10-20T03:48:15.161Z,7.38
2016-10-20T03:49:15.194Z,7.42
2016-10-20T03:50:15.152Z,7.27
2016-10-20T03:51:15.134Z,7.31
2016-10-20T03:52:15.135Z,7.42
2016-10-20T03:53:15.287Z,7.31
2016-10-20T03:54:15.146Z,7.27
2016-10-20T03:55:15.137Z,7.37
2016-10-20T03:56:15.179Z,7.35
2016-10-20T03:57:15.142Z,7.17
2016-10-20T03:58:15.112Z,7.29
2016-10-20T03:59:15.729Z,7.26
2016-10-20T04:00:15.171Z,7.34
2016-10-20T04:01:15.201Z,7.41
2016-10-20T04:02:15.148Z,7.32
2016-10-20T04:03:15.141Z,7.22
2016-10-20T04:04:15.177Z,7.23
2016-10-20T04:05:15.181Z,7.2
2016-10-20T04:06:15.175Z,7.2
2016-10-20T04:07:15.183Z,7.29
2016-10-20T04:08:15.184Z,7.22
2016-10-20T04:09:15.195Z,7.2
2016-10-20T04:10:15.227Z,7.24
2016-10-20T04:11:15.173Z,7.23
2016-10-20T04:12:15.327Z,7.09
2016-10-20T04:13:15.144Z,7.22
2016-10-20T04:14:15.187Z,7.27
2016-10-20T04:15:15.225Z,7.17
2016-10-20T04:16:15.159Z,7.15
2016-10-20T04:17:15.164Z,7.12
2016-10-20T04:18:15.154Z,7.16
2016-10-20T04:19:15.442Z,7.19
2016-10-20T04:20:15.162Z,7.19
2016-10-20T04:21:15.164Z,7.07
2016-10-20T04:22:15.135Z,7.15
2016-10-20T04:23:15.162Z,7.26
2016-10-20T04:24:15.171Z,7.09
2016-10-20T04:25:15.143Z,7.08
2016-10-20T04:26:15.219Z,7.12
2016-10-20T04:27:15.142Z,7.13
2016-10-20T04:28:15.164Z,7.01
2016-10-20T04:29:15.169Z,7.05
2016-10-20T04:30:15.188Z,7.01
2016-10-20T04:31:15.185Z,7.04
2016-10-20T04:32:15.185Z,7.05
2016-10-20T04:33:15.169Z,7.13
2016-10-20T04:34:15.168Z,6.98
2016-10-20T04:35:15.209Z,6.94
2016-10-20T04:36:15.174Z,7.02
2016-10-20T04:37:15.153Z,7.09
2016-10-20T04:38:15.149Z,7.05
2016-10-20T04:39:15.197Z,6.98
2016-10-20T04:40:15.179Z,7.04
2016-10-20T04:41:15.198Z,7.08
2016-10-20T04:42:15.189Z,7.05
2016-10-20T04:43:15.197Z,7.04
2016-10-20T04:44:15.173Z,7.08
2016-10-20T04:45:15.165Z,7.01
2016-10-20T04:46:15.197Z,6.95
2016-10-20T04:47:15.221Z,6.99
2016-10-20T04:48:15.185Z,6.91
2016-10-20T04:49:15.237Z,6.95
2016-10-20T04:50:15.198Z,7.09
2016-10-20T04:51:15.253Z,6.98
2016-10-20T04:52:15.192Z,7.12
2016-10-20T04:53:15.178Z,6.98
2016-10-20T04:54:15.170Z,7.07
2016-10-20T04:55:15.185Z,7.02
2016-10-20T04:56:15.215Z,7.02
2016-10-20T04:57:15.175Z,6.98
2016-10-20T04:58:15.182Z,6.89
2016-10-20T04:59:15.228Z,7.02
2016-10-20T05:00:15.196Z,6.99
2016-10-20T05:01:15.241Z,6.97
2016-10-20T05:02:15.211Z,7.04
2016-10-20T05:03:15.193Z,6.98
2016-10-20T05:04:15.195Z,6.98
2016-10-20T05:05:15.187Z,6.91
2016-10-20T05:06:15.209Z,6.97
2016-10-20T05:07:15.183Z,6.91
2016-10-20T05:08:15.204Z,6.9
2016-10-20T05:09:15.177Z,6.98
2016-10-20T05:10:15.208Z,7.01
2016-10-20T05:11:15.196Z,6.81
2016-10-20T05:12:15.186Z,6.84
2016-10-20T05:13:15.149Z,6.94
2016-10-20T05:14:15.182Z,6.98
2016-10-20T05:15:15.154Z,6.94
2016-10-20T05:16:15.218Z,6.98
2016-10-20T05:17:15.205Z,6.91
2016-10-20T05:18:15.184Z,6.86
2016-10-20T05:19:15.256Z,6.86
2016-10-20T05:20:15.225Z,6.76
2016-10-20T05:21:15.237Z,6.84
2016-10-20T05:22:15.202Z,6.89
2016-10-20T05:23:15.260Z,6.91
2016-10-20T05:24:15.181Z,6.94
2016-10-20T05:25:15.205Z,6.83
2016-10-20T05:26:15.403Z,6.77
2016-10-20T05:27:15.218Z,6.77
2016-10-20T05:28:15.176Z,6.8
2016-10-20T05:29:15.215Z,6.99
2016-10-20T05:30:15.222Z,6.69
2016-10-20T05:31:15.257Z,6.81
2016-10-20T05:32:15.203Z,6.86
2016-10-20T05:33:15.239Z,6.86
2016-10-20T05:34:15.245Z,6.77
2016-10-20T05:35:15.219Z,6.84
2016-10-20T05:36:15.243Z,6.8
2016-10-20T05:37:15.202Z,6.89
2016-10-20T05:38:15.200Z,6.86
2016-10-20T05:39:15.206Z,6.84
2016-10-20T05:40:15.282Z,6.79
2016-10-20T05:41:15.266Z,6.77
2016-10-20T05:42:15.221Z,6.69
2016-10-20T05:43:15.244Z,6.65
2016-10-20T05:44:15.234Z,6.89
2016-10-20T05:45:15.257Z,6.89
2016-10-20T05:46:15.247Z,6.86
2016-10-20T05:47:15.298Z,6.73
2016-10-20T05:48:15.254Z,6.69
2016-10-20T05:49:15.247Z,6.66
2016-10-20T05:50:15.302Z,6.73
2016-10-20T05:51:15.224Z,6.86
2016-10-20T05:52:15.240Z,6.89
2016-10-20T05:53:15.239Z,6.87
2016-10-20T05:54:15.222Z,6.66
2016-10-20T05:55:15.232Z,6.76
2016-10-20T05:56:15.238Z,6.71
2016-10-20T05:57:15.258Z,6.77
2016-10-20T05:58:15.307Z,6.66
2016-10-20T05:59:15.583Z,6.71
2016-10-20T06:00:15.278Z,6.8
2016-10-20T06:01:15.244Z,6.9
2016-10-20T06:02:15.206Z,6.79
2016-10-20T06:03:15.270Z,6.66
2016-10-20T06:04:15.210Z,6.63
2016-10-20T06:05:15.243Z,6.71
2016-10-20T06:06:15.281Z,6.76
2016-10-20T06:07:15.241Z,6.65
2016-10-20T06:08:15.291Z,6.76
2016-10-20T06:09:15.253Z,6.8
2016-10-20T06:10:15.249Z,6.66
2016-10-20T06:11:15.307Z,6.77
2016-10-20T06:12:15.265Z,6.65
2016-10-20T06:13:15.239Z,6.87
2016-10-20T06:14:15.256Z,6.8
2016-10-20T06:15:15.285Z,6.73
2016-10-20T06:16:15.278Z,6.69
2016-10-20T06:17:15.272Z,6.76
2016-10-20T06:18:15.276Z,6.84
2016-10-20T06:19:15.243Z,6.83
2016-10-20T06:20:15.272Z,6.66
2016-10-20T06:21:15.298Z,6.83
2016-10-20T06:22:15.247Z,6.84
2016-10-20T06:23:15.291Z,6.81
2016-10-20T06:24:15.864Z,6.9
2016-10-20T06:25:15.266Z,6.91
2016-10-20T06:26:15.297Z,6.87
2016-10-20T06:27:15.263Z,6.84
2016-10-20T06:28:15.268Z,7.01
2016-10-20T06:29:15.323Z,6.83
2016-10-20T06:30:15.240Z,6.86
2016-10-20T06:31:15.266Z,6.84
2016-10-20T06:32:15.288Z,6.91
2016-10-20T06:33:15.263Z,6.99
2016-10-20T06:34:15.271Z,6.98
2016-10-20T06:35:15.252Z,6.91
2016-10-20T06:36:15.740Z,6.99
2016-10-20T06:37:15.271Z,7.02
2016-10-20T06:38:15.294Z,7.07
2016-10-20T06:39:15.297Z,7.04
2016-10-20T06:40:15.349Z,7.02
2016-10-20T06:41:15.322Z,6.99
2016-10-20T06:42:15.420Z,7.12
2016-10-20T06:43:15.315Z,7.15
2016-10-20T06:44:15.285Z,7.09
2016-10-20T06:45:15.273Z,7.04
2016-10-20T06:46:15.297Z,7.04
2016-10-20T06:47:15.415Z,7.05
2016-10-20T06:48:15.303Z,7.07
2016-10-20T06:49:15.280Z,7.19
2016-10-20T06:50:15.288Z,7.16
2016-10-20T06:51:15.354Z,7.22
2016-10-20T06:52:15.357Z,7.26
2016-10-20T06:53:15.687Z,7.26
2016-10-20T06:54:15.461Z,7.27
2016-10-20T06:55:15.587Z,7.34
2016-10-20T06:56:15.622Z,7.24
2016-10-20T06:57:15.443Z,7.34
2016-10-20T06:58:15.351Z,7.32
2016-10-20T06:59:15.584Z,7.49
2016-10-20T07:00:15.564Z,7.44
2016-10-20T07:01:15.436Z,7.47
2016-10-20T07:02:15.301Z,7.47
2016-10-20T07:03:15.287Z,7.52
2016-10-20T07:04:15.261Z,7.62
2016-10-20T07:05:15.285Z,7.47
2016-10-20T07:06:15.398Z,7.59
2016-10-20T07:07:15.324Z,7.74
2016-10-20T07:08:15.291Z,7.6
2016-10-20T07:09:15.282Z,7.47
2016-10-20T07:10:15.267Z,7.67
2016-10-20T07:11:15.293Z,7.63
2016-10-20T07:12:15.309Z,7.75
2016-10-20T07:13:15.285Z,7.63
2016-10-20T07:14:15.283Z,7.72
2016-10-20T07:15:15.328Z,7.74
2016-10-20T07:16:15.320Z,7.69
2016-10-20T07:17:15.286Z,7.74
2016-10-20T07:18:15.280Z,7.77
2016-10-20T07:19:15.317Z,7.87
2016-10-20T07:20:15.286Z,7.84
2016-10-20T07:21:15.302Z,7.84
2016-10-20T07:22:15.292Z,7.93
2016-10-20T07:23:16.611Z,7.85
2016-10-20T07:24:15.320Z,7.93
2016-10-20T07:25:15.342Z,8.08
2016-10-20T07:26:15.318Z,8.07
2016-10-20T07:27:15.349Z,8.08
2016-10-20T07:28:15.483Z,8.07
2016-10-20T07:29:15.353Z,8.07
2016-10-20T07:30:15.368Z,8.14
2016-10-20T07:31:15.417Z,8.15
2016-10-20T07:32:15.339Z,8.21
2016-10-20T07:33:15.356Z,8.32
2016-10-20T07:34:15.392Z,8.28
2016-10-20T07:35:15.358Z,8.35
2016-10-20T07:36:15.300Z,8.35
2016-10-20T07:37:15.297Z,8.42
2016-10-20T07:38:15.306Z,8.42
2016-10-20T07:39:15.325Z,8.44
2016-10-20T07:40:15.285Z,8.48
2016-10-20T07:41:15.325Z,8.63
2016-10-20T07:42:15.346Z,8.57
2016-10-20T07:43:15.325Z,8.54
2016-10-20T07:44:15.361Z,8.66
2016-10-20T07:45:15.343Z,8.71
2016-10-20T07:46:15.416Z,8.62
2016-10-20T07:47:15.412Z,8.62
2016-10-20T07:48:15.355Z,8.68
2016-10-20T07:49:15.331Z,8.69
2016-10-20T07:50:15.325Z,8.65
2016-10-20T07:51:15.406Z,8.73
2016-10-20T07:52:15.384Z,8.72
2016-10-20T07:53:15.304Z,8.81
2016-10-20T07:54:15.351Z,8.86
2016-10-20T07:55:15.332Z,8.91
2016-10-20T07:56:15.376Z,8.93
2016-10-20T07:57:15.314Z,8.93
2016-10-20T07:58:15.338Z,8.93
2016-10-20T07:59:15.342Z,9.05
2016-10-20T08:00:15.392Z,9.06
2016-10-20T08:01:15.374Z,9.18
2016-10-20T08:02:15.341Z,9.1
2016-10-20T08:03:15.354Z,9.25
2016-10-20T08:04:15.308Z,9.16
2016-10-20T08:05:15.344Z,9.42
2016-10-20T08:06:15.373Z,9.32
2016-10-20T08:07:15.360Z,9.43
2016-10-20T08:08:15.437Z,9.52
2016-10-20T08:09:15.372Z,9.45
2016-10-20T08:10:15.358Z,9.39
2016-10-20T08:11:15.387Z,9.61
2016-10-20T08:12:15.337Z,9.58
2016-10-20T08:13:15.321Z,9.76
2016-10-20T08:14:15.383Z,9.78
2016-10-20T08:15:15.317Z,9.81
2016-10-20T08:16:15.558Z,9.78
2016-10-20T08:17:15.374Z,9.88
2016-10-20T08:18:15.380Z,9.86
2016-10-20T08:19:15.376Z,10.01
2016-10-20T08:20:15.367Z,10.06
2016-10-20T08:21:15.430Z,10.15
2016-10-20T08:22:15.395Z,10.15
2016-10-20T08:23:15.342Z,10.15
2016-10-20T08:24:15.329Z,10.24
2016-10-20T08:25:15.427Z,10.26
2016-10-20T08:26:15.466Z,10.34
2016-10-20T08:27:15.397Z,10.43
2016-10-20T08:28:15.381Z,10.47
2016-10-20T08:29:15.361Z,10.4
2016-10-20T08:30:15.377Z,10.46
2016-10-20T08:31:15.379Z,10.55
2016-10-20T08:32:15.380Z,10.65
2016-10-20T08:33:15.415Z,10.51
2016-10-20T08:34:15.393Z,10.59
2016-10-20T08:35:15.361Z,10.71
2016-10-20T08:36:15.398Z,10.66
2016-10-20T08:37:15.403Z,10.7
2016-10-20T08:38:15.995Z,10.73
2016-10-20T08:39:15.419Z,10.74
2016-10-20T08:40:15.402Z,10.8
2016-10-20T08:41:15.450Z,10.77
2016-10-20T08:42:15.453Z,10.84
2016-10-20T08:43:15.425Z,10.86
2016-10-20T08:44:15.443Z,10.88
2016-10-20T08:45:15.431Z,10.86
2016-10-20T08:46:15.418Z,10.88
2016-10-20T08:47:15.435Z,10.95
2016-10-20T08:48:15.434Z,10.91
2016-10-20T08:49:15.438Z,11.07
2016-10-20T08:50:15.428Z,11.07
2016-10-20T08:51:15.434Z,11.13
2016-10-20T08:52:15.383Z,10.95
2016-10-20T08:53:15.379Z,10.95
2016-10-20T08:54:15.440Z,11.09
2016-10-20T08:55:15.459Z,11.02
2016-10-20T08:56:15.399Z,11.14
2016-10-20T08:57:15.395Z,11.17
2016-10-20T08:58:15.392Z,11.2
2016-10-20T08:59:15.403Z,11.16
2016-10-20T09:00:15.420Z,11.32
2016-10-20T09:01:15.530Z,11.46
2016-10-20T09:02:15.460Z,11.49
2016-10-20T09:03:15.439Z,11.5
2016-10-20T09:04:15.419Z,11.53
2016-10-20T09:05:16.103Z,11.61
2016-10-20T09:06:15.474Z,11.54
2016-10-20T09:07:15.405Z,11.64
2016-10-20T09:08:15.421Z,11.67
2016-10-20T09:09:15.483Z,11.65
2016-10-20T09:10:15.420Z,11.61
2016-10-20T09:11:15.438Z,11.54
2016-10-20T09:12:15.354Z,11.47
2016-10-20T09:13:15.454Z,11.61
2016-10-20T09:14:15.457Z,11.68
2016-10-20T09:15:15.432Z,11.7
2016-10-20T09:16:15.458Z,11.68
2016-10-20T09:17:15.468Z,11.89
2016-10-20T09:18:15.437Z,11.93
2016-10-20T09:19:15.448Z,11.99
2016-10-20T09:20:15.428Z,12.08
2016-10-20T09:21:15.452Z,12.2
2016-10-20T09:22:15.441Z,12.37
2016-10-20T09:23:15.387Z,12.49
2016-10-20T09:24:15.441Z,12.33
2016-10-20T09:25:15.420Z,12.23
2016-10-20T09:26:15.438Z,12.39
2016-10-20T09:27:15.387Z,12.16
2016-10-20T09:28:15.394Z,12.16
2016-10-20T09:29:15.340Z,12.11
2016-10-20T09:30:15.392Z,12.2
2016-10-20T09:31:15.532Z,12.09
2016-10-20T09:32:15.476Z,12.08
2016-10-20T09:33:15.371Z,12.08
2016-10-20T09:34:15.387Z,12.16
2016-10-20T09:35:15.444Z,12.11
2016-10-20T09:36:15.420Z,12.23
2016-10-20T09:37:15.407Z,12.2
2016-10-20T09:38:15.479Z,12.27
2016-10-20T09:39:15.467Z,12.3
2016-10-20T09:40:15.398Z,12.3
2016-10-20T09:41:15.407Z,12.21
2016-10-20T09:42:15.435Z,12.44
2016-10-20T09:43:15.425Z,12.41
2016-10-20T09:44:15.400Z,12.33
2016-10-20T09:45:15.435Z,12.41
2016-10-20T09:46:15.462Z,12.34
2016-10-20T09:47:15.505Z,12.46
2016-10-20T09:48:15.465Z,12.42
2016-10-20T09:49:15.388Z,12.38
2016-10-20T09:50:15.387Z,12.34
2016-10-20T09:51:15.445Z,12.49
2016-10-20T09:52:15.441Z,12.54
2016-10-20T09:53:15.432Z,12.41
2016-10-20T09:54:15.409Z,12.48
2016-10-20T09:55:15.430Z,12.42
2016-10-20T09:56:15.465Z,12.52
2016-10-20T09:57:15.414Z,12.49
2016-10-20T09:58:15.513Z,12.51
2016-10-20T09:59:15.419Z,12.45
2016-10-20T10:00:15.451Z,12.39
2016-10-20T10:01:15.500Z,12.64
2016-10-20T10:02:15.432Z,12.49
2016-10-20T10:03:15.485Z,12.75
2016-10-20T10:04:15.445Z,12.62
2016-10-20T10:05:15.487Z,12.78
2016-10-20T10:06:15.455Z,12.69
2016-10-20T10:07:15.433Z,12.82
2016-10-20T10:08:15.490Z,12.81
2016-10-20T10:09:15.432Z,12.78
2016-10-20T10:10:15.457Z,12.81
2016-10-20T10:11:15.438Z,12.92
2016-10-20T10:12:15.445Z,12.96
2016-10-20T10:13:15.435Z,12.88
2016-10-20T10:14:15.425Z,13.03
2016-10-20T10:15:15.406Z,13.03
2016-10-20T10:16:15.454Z,13.11
2016-10-20T10:17:15.461Z,13.06
2016-10-20T10:18:15.442Z,13.09
2016-10-20T10:19:15.457Z,13.14
2016-10-20T10:20:15.440Z,13.09
2016-10-20T10:21:16.437Z,13.15
2016-10-20T10:22:15.430Z,13.2
2016-10-20T10:23:15.436Z,13.12
2016-10-20T10:24:15.416Z,13.11
2016-10-20T10:25:15.436Z,13.21
2016-10-20T10:26:15.480Z,13.22
2016-10-20T10:27:15.486Z,13.29
2016-10-20T10:28:15.530Z,13.43
2016-10-20T10:29:15.501Z,13.41
2016-10-20T10:30:15.445Z,13.44
2016-10-20T10:31:15.457Z,13.47
2016-10-20T10:32:15.449Z,13.7
2016-10-20T10:33:15.430Z,13.7
2016-10-20T10:34:15.446Z,13.84
2016-10-20T10:35:15.478Z,13.89
2016-10-20T10:36:15.446Z,13.89
2016-10-20T10:37:15.483Z,13.89
2016-10-20T10:38:15.429Z,13.89
2016-10-20T10:39:15.481Z,13.92
2016-10-20T10:40:15.464Z,13.81
2016-10-20T10:41:15.571Z,13.89
2016-10-20T10:42:15.457Z,13.81
2016-10-20T10:43:15.470Z,13.83
2016-10-20T10:44:15.459Z,13.8
2016-10-20T10:45:15.491Z,13.83
2016-10-20T10:46:15.467Z,13.81
2016-10-20T10:47:15.507Z,13.77
2016-10-20T10:48:15.474Z,13.73
2016-10-20T10:49:15.565Z,13.73
2016-10-20T10:50:15.474Z,13.77
2016-10-20T10:51:15.489Z,13.73
2016-10-20T10:52:15.562Z,13.74
2016-10-20T10:53:15.491Z,13.63
2016-10-20T10:54:15.502Z,13.73
2016-10-20T10:55:15.510Z,13.73
2016-10-20T10:56:16.253Z,13.77
2016-10-20T10:57:15.509Z,13.73
2016-10-20T10:58:15.601Z,13.55
2016-10-20T10:59:15.510Z,13.63
2016-10-20T11:00:15.503Z,13.54
2016-10-20T11:01:15.482Z,13.55
2016-10-20T11:02:15.465Z,13.4
2016-10-20T11:03:15.518Z,13.46
2016-10-20T11:04:15.455Z,13.43
2016-10-20T11:05:15.486Z,13.36
2016-10-20T11:06:15.480Z,13.25
2016-10-20T11:07:15.509Z,13.17
2016-10-20T11:08:15.458Z,13.32
2016-10-20T11:09:15.502Z,13.24
2016-10-20T11:10:15.483Z,13.36
2016-10-20T11:11:15.533Z,13.3
2016-10-20T11:12:15.475Z,13.21
2016-10-20T11:13:15.565Z,13.27
2016-10-20T11:14:15.537Z,13.49
2016-10-20T11:15:15.506Z,13.44
2016-10-20T11:16:15.615Z,13.55
2016-10-20T11:17:16.461Z,13.58
2016-10-20T11:18:15.533Z,13.67
2016-10-20T11:19:15.566Z,13.79
2016-10-20T11:20:15.497Z,13.87
2016-10-20T11:21:17.993Z,13.67
2016-10-20T11:22:15.619Z,13.74
2016-10-20T11:23:15.525Z,13.67
2016-10-20T11:24:15.660Z,13.76
2016-10-20T11:25:15.557Z,13.76
2016-10-20T11:26:15.558Z,13.73
2016-10-20T11:27:15.769Z,13.89
2016-10-20T11:28:15.605Z,13.83
2016-10-20T11:29:15.496Z,13.94
2016-10-20T11:30:15.573Z,14.02
2016-10-20T11:31:15.519Z,14.06
2016-10-20T11:32:16.054Z,14.06
2016-10-20T11:33:15.534Z,14.1
2016-10-20T11:34:15.478Z,14.24
2016-10-20T11:35:15.573Z,14.1
2016-10-20T11:36:15.803Z,14.09
2016-10-20T11:37:15.574Z,13.92
2016-10-20T11:38:15.554Z,13.99
2016-10-20T11:39:15.513Z,13.92
2016-10-20T11:40:15.506Z,13.81
2016-10-20T11:41:15.727Z,13.65
2016-10-20T11:42:15.583Z,13.74
2016-10-20T11:43:15.533Z,13.67
2016-10-20T11:44:15.563Z,13.63
2016-10-20T11:45:15.555Z,13.67
2016-10-20T11:46:15.548Z,13.54
2016-10-20T11:47:15.593Z,13.55
2016-10-20T11:48:15.903Z,13.37
2016-10-20T11:49:15.666Z,13.37
2016-10-20T11:50:15.603Z,13.29
2016-10-20T11:51:15.582Z,13.24
2016-10-20T11:52:15.500Z,13.04
2016-10-20T11:53:15.574Z,13.2
2016-10-20T11:54:15.872Z,13.03
2016-10-20T11:55:15.783Z,12.93
2016-10-20T11:56:15.557Z,12.89
2016-10-20T11:57:15.558Z,12.77
2016-10-20T11:58:15.775Z,12.7
2016-10-20T11:59:15.628Z,12.7
2016-10-20T12:00:16.061Z,12.71
2016-10-20T12:01:15.689Z,12.59
2016-10-20T12:02:15.573Z,12.41
2016-10-20T12:03:15.511Z,12.44
2016-10-20T12:04:15.570Z,12.49
2016-10-20T12:05:16.088Z,12.45
2016-10-20T12:06:15.545Z,12.38
2016-10-20T12:07:15.519Z,12.31
2016-10-20T12:08:15.536Z,12.16
2016-10-20T12:09:15.616Z,12.13
2016-10-20T12:10:15.676Z,12.04
2016-10-20T12:11:15.746Z,12.05
2016-10-20T12:12:15.593Z,12.05
2016-10-20T12:13:15.650Z,12.08
2016-10-20T12:14:15.586Z,11.97
2016-10-20T12:15:16.528Z,12.04
2016-10-20T12:16:16.325Z,11.89
2016-10-20T12:17:15.552Z,11.97
2016-10-20T12:18:15.619Z,11.86
2016-10-20T12:19:15.715Z,11.86
2016-10-20T12:20:15.762Z,11.97
2016-10-20T12:21:15.642Z,11.85
2016-10-20T12:22:15.730Z,11.94
2016-10-20T12:23:15.891Z,11.94
2016-10-20T12:24:15.602Z,11.78
2016-10-20T12:25:15.535Z,11.94
2016-10-20T12:26:15.565Z,11.9
2016-10-20T12:27:15.604Z,11.86
2016-10-20T12:28:15.757Z,11.89
2016-10-20T12:29:15.603Z,11.87
2016-10-20T12:30:15.567Z,11.85
2016-10-20T12:31:15.632Z,11.72
2016-10-20T12:32:15.569Z,11.82
2016-10-20T12:33:15.513Z,11.68
2016-10-20T12:34:15.658Z,11.74
2016-10-20T12:35:15.632Z,11.67
2016-10-20T12:36:15.626Z,11.62
2016-10-20T12:37:15.679Z,11.59
2016-10-20T12:38:15.590Z,11.64
2016-10-20T12:39:15.618Z,11.59
2016-10-20T12:40:15.601Z,11.5
2016-10-20T12:41:15.588Z,11.5
2016-10-20T12:42:15.603Z,11.38
2016-10-20T12:43:15.581Z,11.39
2016-10-20T12:44:15.642Z,11.32
2016-10-20T12:45:15.622Z,11.38
2016-10-20T12:46:15.687Z,11.36
2016-10-20T12:47:15.738Z,11.29
2016-10-20T12:48:16.330Z,11.25
2016-10-20T12:49:15.634Z,11.35
2016-10-20T12:50:15.599Z,11.21
2016-10-20T12:51:15.663Z,11.19
2016-10-20T12:52:15.568Z,11.25
2016-10-20T12:53:15.569Z,11.21
2016-10-20T12:54:16.253Z,11.13
2016-10-20T12:55:15.775Z,11.14
2016-10-20T12:56:15.840Z,11.06
2016-10-20T12:57:15.591Z,11.07
2016-10-20T12:58:15.598Z,11.14
2016-10-20T12:59:15.674Z,11.1
2016-10-20T13:00:15.586Z,11.02
2016-10-20T13:01:15.610Z,11.03
2016-10-20T13:02:15.958Z,11.11
2016-10-20T13:03:15.613Z,10.99
2016-10-20T13:04:15.574Z,10.94
2016-10-20T13:05:15.589Z,10.94
2016-10-20T13:06:15.612Z,10.81
2016-10-20T13:07:15.582Z,10.88
2016-10-20T13:08:15.603Z,10.99
2016-10-20T13:09:15.608Z,10.84
2016-10-20T13:10:15.606Z,10.88